Time;durP1;ratioP1;P1;durP2;ratioP2;P2;SDS_P1;SDS_P2;PMS_P1;PMS_P2;Temp;Humidity;BMP_temperature;BMP_pressure;BME280_temperature;BME280_humidity;BME280_pressure;Samples;Min_cycle;Max_cycle;Signal;HPM_P1;HPM_P2
2023/03/22 00:02:05;;;;;;;5.00;4.60;;;11.90;99.90;;;;;;5839998;24;20667;-81
2023/03/22 00:04:33;;;;;;;5.35;4.30;;;11.80;99.90;;;;;;5836857;24;20237;-81
2023/03/22 00:07:00;;;;;;;5.38;4.97;;;11.70;99.90;;;;;;5849080;24;20201;-81
2023/03/22 00:09:27;;;;;;;5.32;4.90;;;11.60;99.90;;;;;;5830391;24;20198;-81
2023/03/22 00:11:54;;;;;;;5.95;5.32;;;11.50;99.90;;;;;;5839231;24;20718;-81
2023/03/22 00:14:21;;;;;;;6.47;5.88;;;11.40;99.90;;;;;;5835966;24;20230;-81
2023/03/22 00:16:48;;;;;;;6.10;5.40;;;11.40;99.90;;;;;;5838775;24;20203;-81
2023/03/22 00:19:17;;;;;;;5.10;4.68;;;11.30;99.90;;;;;;5839132;24;20217;-81
2023/03/22 00:21:45;;;;;;;6.68;5.13;;;11.30;99.90;;;;;;5835700;24;20507;-81
2023/03/22 00:24:12;;;;;;;5.30;4.80;;;11.20;99.90;;;;;;5837617;24;20214;-81
2023/03/22 00:26:39;;;;;;;5.70;4.93;;;11.20;99.90;;;;;;5836571;24;20293;-82
2023/03/22 00:29:06;;;;;;;5.68;5.20;;;11.20;99.90;;;;;;5838438;24;20294;-82
2023/03/22 00:31:33;;;;;;;5.85;5.35;;;11.20;99.90;;;;;;5842050;24;20548;-81
2023/03/22 00:34:00;;;;;;;6.10;5.60;;;11.30;99.90;;;;;;5832351;24;20226;-82
2023/03/22 00:36:29;;;;;;;6.07;5.65;;;11.30;99.90;;;;;;5839665;24;20222;-82
2023/03/22 00:38:56;;;;;;;5.50;5.00;;;11.30;99.90;;;;;;5839155;24;20250;-82
2023/03/22 00:41:24;;;;;;;5.25;4.72;;;11.40;99.90;;;;;;5836836;24;20201;-80
2023/03/22 00:43:51;;;;;;;5.28;4.65;;;11.40;99.90;;;;;;5836273;24;20758;-81
2023/03/22 00:46:20;;;;;;;5.20;4.63;;;11.40;99.90;;;;;;5838036;24;20323;-80
2023/03/22 00:48:48;;;;;;;5.22;4.75;;;11.40;99.90;;;;;;5838010;24;20194;-81
2023/03/22 00:51:16;;;;;;;5.63;4.97;;;11.40;99.90;;;;;;5838021;24;20198;-81
2023/03/22 00:53:48;;;;;;;5.53;5.03;;;11.40;99.90;;;;;;5830830;24;20225;-81
2023/03/22 00:56:15;;;;;;;4.85;4.45;;;11.40;99.90;;;;;;5837003;24;20304;-81
2023/03/22 00:58:42;;;;;;;5.00;4.60;;;11.30;99.90;;;;;;5838878;24;20189;-81
2023/03/22 01:01:12;;;;;;;5.10;4.60;;;11.40;99.90;;;;;;5837313;24;20286;-81
2023/03/22 01:03:39;;;;;;;5.05;4.50;;;11.30;99.90;;;;;;5837287;24;20222;-81
2023/03/22 01:06:07;;;;;;;5.05;4.15;;;11.30;99.90;;;;;;5832248;24;20686;-81
2023/03/22 01:08:37;;;;;;;4.35;4.05;;;11.30;99.90;;;;;;5836255;24;20198;-81
2023/03/22 01:11:07;;;;;;;5.88;4.38;;;11.30;99.90;;;;;;5841251;24;20226;-81
2023/03/22 01:13:36;;;;;;;5.53;4.63;;;11.20;99.90;;;;;;5837868;24;20222;-81
2023/03/22 01:16:03;;;;;;;6.43;4.95;;;11.10;99.90;;;;;;5832331;24;20222;-82
2023/03/22 01:18:30;;;;;;;5.30;4.72;;;11.10;99.90;;;;;;5839902;24;20541;-82
2023/03/22 01:20:59;;;;;;;5.28;4.78;;;11.00;99.90;;;;;;5838797;24;20269;-82
2023/03/22 01:23:26;;;;;;;5.30;4.80;;;11.30;99.90;;;;;;5838666;24;20221;-82
2023/03/22 01:25:53;;;;;;;4.80;4.40;;;11.00;99.90;;;;;;5839574;24;20288;-82
2023/03/22 01:28:21;;;;;;;4.90;4.50;;;10.90;99.90;;;;;;5828580;24;20575;-82
2023/03/22 01:30:49;;;;;;;5.63;5.00;;;10.80;99.90;;;;;;5847381;24;20194;-82
2023/03/22 01:33:17;;;;;;;4.80;4.43;;;10.80;99.90;;;;;;5820802;24;20217;-82
2023/03/22 01:35:44;;;;;;;4.93;4.43;;;10.70;99.90;;;;;;5838036;24;20234;-82
2023/03/22 01:38:11;;;;;;;4.80;4.35;;;10.60;99.90;;;;;;5845580;24;20198;-82
2023/03/22 01:40:39;;;;;;;7.43;4.95;;;10.50;99.90;;;;;;5836929;24;20198;-83
2023/03/22 01:43:13;;;;;;;5.55;5.05;;;10.50;99.90;;;;;;5837808;24;20214;-82
2023/03/22 01:45:42;;;;;;;5.38;4.82;;;10.50;99.90;;;;;;5837618;24;20213;-83
2023/03/22 01:48:19;;;;;;;7.82;5.50;;;10.40;99.90;;;;;;5840455;24;20660;-82
2023/03/22 01:50:54;;;;;;;6.72;5.30;;;10.40;99.90;;;;;;5837466;24;20244;-82
2023/03/22 01:53:24;;;;;;;6.93;6.15;;;10.30;99.90;;;;;;5830500;24;20794;-82
2023/03/22 01:55:53;;;;;;;6.50;5.90;;;10.30;99.90;;;;;;5832736;24;20305;-81
2023/03/22 01:58:20;;;;;;;6.65;5.95;;;10.20;99.90;;;;;;5837200;24;20244;-80
2023/03/22 02:00:50;;;;;;;7.03;6.32;;;10.10;99.90;;;;;;5844622;24;20229;-81
2023/03/22 02:03:25;;;;;;;6.70;6.10;;;10.00;99.90;;;;;;5839450;24;20222;-81
2023/03/22 02:05:53;;;;;;;7.10;6.45;;;10.00;99.90;;;;;;5834093;24;20217;-81
2023/03/22 02:08:21;;;;;;;6.60;5.57;;;9.90;99.90;;;;;;5835929;24;20206;-81
2023/03/22 02:10:48;;;;;;;6.80;6.00;;;9.80;99.90;;;;;;5835336;24;20253;-81
2023/03/22 02:13:37;;;;;;;8.30;6.53;;;9.70;99.90;;;;;;5829888;24;20312;-81
2023/03/22 02:16:20;;;;;;;7.00;6.40;;;9.60;99.90;;;;;;5838908;24;20268;-81
2023/03/22 02:18:59;;;;;;;6.80;6.30;;;9.60;99.90;;;;;;5840256;24;20665;-80
2023/03/22 02:21:48;;;;;;;6.82;5.93;;;9.50;99.90;;;;;;5839833;24;20232;-81
2023/03/22 02:24:44;;;;;;;8.05;7.25;;;9.50;99.90;;;;;;5835173;24;20226;-81
2023/03/22 02:27:40;;;;;;;7.25;6.65;;;9.40;99.90;;;;;;5838088;24;20898;-81
2023/03/22 02:30:41;;;;;;;7.18;6.47;;;9.40;99.90;;;;;;5838843;24;20201;-80
2023/03/22 02:33:34;;;;;;;8.18;7.38;;;9.40;99.90;;;;;;5823998;24;20291;-81
2023/03/22 02:36:29;;;;;;;7.95;6.85;;;9.40;99.90;;;;;;5839489;24;20623;-81
2023/03/22 02:39:29;;;;;;;9.65;6.70;;;9.40;99.90;;;;;;5829223;24;20742;-80
2023/03/22 02:42:09;;;;;;;8.75;6.78;;;9.40;99.90;;;;;;5836995;24;20651;-81
2023/03/22 02:44:42;;;;;;;7.40;6.65;;;9.40;99.90;;;;;;5836304;24;20678;-82
2023/03/22 02:47:19;;;;;;;8.93;7.28;;;9.30;99.90;;;;;;5837561;24;20196;-81
2023/03/22 02:49:54;;;;;;;8.77;7.10;;;9.30;99.90;;;;;;5838309;24;20198;-83
2023/03/22 02:52:26;;;;;;;8.63;7.75;;;9.20;99.90;;;;;;5839098;24;20296;-83
2023/03/22 02:55:03;;;;;;;8.82;6.78;;;9.20;99.90;;;;;;5837428;24;20278;-83
2023/03/22 02:57:36;;;;;;;9.30;7.28;;;9.20;99.90;;;;;;5833176;24;20197;-83
2023/03/22 03:00:09;;;;;;;6.47;5.97;;;9.20;99.90;;;;;;5828474;24;20210;-83
2023/03/22 03:02:38;;;;;;;6.38;5.32;;;9.20;99.90;;;;;;5836319;24;20210;-83
2023/03/22 03:05:07;;;;;;;5.30;4.80;;;9.20;99.90;;;;;;5833499;24;20288;-83
2023/03/22 03:07:35;;;;;;;5.93;5.32;;;9.30;99.90;;;;;;5817822;24;20210;-83
2023/03/22 03:10:06;;;;;;;7.40;6.35;;;9.30;99.90;;;;;;5839841;24;20270;-84
2023/03/22 03:12:33;;;;;;;6.47;5.97;;;9.30;99.90;;;;;;5830788;24;20226;-83
2023/03/22 03:15:00;;;;;;;7.05;5.72;;;9.30;99.90;;;;;;5839911;24;20257;-83
2023/03/22 03:17:40;;;;;;;5.45;5.05;;;9.30;99.90;;;;;;5834331;24;20193;-83
2023/03/22 03:20:23;;;;;;;5.78;5.18;;;9.30;99.90;;;;;;5831535;24;20232;-83
2023/03/22 03:23:02;;;;;;;5.00;4.50;;;9.20;99.90;;;;;;5824468;24;20217;-81
2023/03/22 03:25:42;;;;;;;5.03;4.63;;;9.20;99.90;;;;;;5842251;24;20257;-81
2023/03/22 03:28:16;;;;;;;5.50;4.88;;;9.20;99.90;;;;;;5841830;24;20194;-81
2023/03/22 03:30:50;;;;;;;5.03;4.47;;;9.20;99.90;;;;;;5831973;24;20224;-81
2023/03/22 03:33:21;;;;;;;5.90;5.30;;;9.20;99.90;;;;;;5840709;24;20304;-81
2023/03/22 03:35:52;;;;;;;5.10;4.57;;;9.20;99.90;;;;;;5845243;24;20220;-81
2023/03/22 03:38:24;;;;;;;5.85;4.75;;;9.20;99.90;;;;;;5838457;24;20202;-81
2023/03/22 03:40:57;;;;;;;5.18;4.72;;;9.10;99.90;;;;;;5838391;24;20300;-80
2023/03/22 03:43:25;;;;;;;5.57;4.82;;;9.10;99.90;;;;;;5836382;24;20248;-81
2023/03/22 03:45:54;;;;;;;4.93;4.50;;;9.00;99.90;;;;;;5842044;24;20212;-80
2023/03/22 03:48:23;;;;;;;4.78;4.20;;;8.90;99.90;;;;;;5840743;24;20209;-81
2023/03/22 03:50:53;;;;;;;6.45;4.93;;;8.90;99.90;;;;;;5838101;24;20197;-80
2023/03/22 03:53:20;;;;;;;4.85;4.43;;;8.90;99.90;;;;;;5829194;24;20705;-80
2023/03/22 03:55:47;;;;;;;8.25;4.65;;;8.90;99.90;;;;;;5845478;24;20253;-81
2023/03/22 03:58:16;;;;;;;4.30;3.90;;;8.90;99.90;;;;;;5837867;24;20204;-81
2023/03/22 04:00:44;;;;;;;4.32;3.95;;;8.90;99.90;;;;;;5838110;24;20205;-81
2023/03/22 04:03:12;;;;;;;4.20;3.80;;;8.80;99.90;;;;;;5840164;24;20217;-81
2023/03/22 04:05:40;;;;;;;5.15;4.55;;;8.80;99.90;;;;;;5838179;24;20217;-81
2023/03/22 04:08:07;;;;;;;4.38;3.97;;;8.80;99.90;;;;;;5834163;24;20201;-81
2023/03/22 04:10:34;;;;;;;4.65;4.15;;;8.80;99.90;;;;;;5839136;24;20876;-82
2023/03/22 04:13:01;;;;;;;4.40;4.00;;;8.80;99.90;;;;;;5840382;24;20232;-81
2023/03/22 04:15:30;;;;;;;5.03;4.53;;;8.80;99.90;;;;;;5837687;24;20245;-81
2023/03/22 04:17:58;;;;;;;4.60;4.18;;;8.70;99.90;;;;;;5839066;24;20225;-81
2023/03/22 04:20:26;;;;;;;4.70;3.88;;;8.60;99.90;;;;;;5838003;24;20908;-81
2023/03/22 04:22:53;;;;;;;4.50;4.10;;;8.60;99.90;;;;;;5822410;24;20272;-81
2023/03/22 04:25:21;;;;;;;4.32;4.03;;;8.50;99.90;;;;;;5836198;24;20284;-81
2023/03/22 04:27:50;;;;;;;4.65;4.25;;;8.50;99.90;;;;;;5839360;24;20201;-81
2023/03/22 04:30:19;;;;;;;5.30;4.80;;;8.40;99.90;;;;;;5838345;24;20494;-80
2023/03/22 04:32:48;;;;;;;4.47;4.18;;;8.30;99.90;;;;;;5837639;24;20222;-81
2023/03/22 04:35:16;;;;;;;5.28;4.65;;;8.20;99.90;;;;;;5841589;24;20223;-80
2023/03/22 04:37:44;;;;;;;8.50;5.00;;;8.20;99.90;;;;;;5855267;24;20279;-81
2023/03/22 04:40:15;;;;;;;5.88;5.28;;;8.10;99.90;;;;;;5836006;24;20708;-81
2023/03/22 04:42:43;;;;;;;7.05;5.00;;;8.10;99.90;;;;;;5830279;24;20244;-79
2023/03/22 04:45:11;;;;;;;5.90;5.30;;;8.00;99.90;;;;;;5830637;24;20225;-83
2023/03/22 04:47:39;;;;;;;6.88;5.95;;;8.00;99.90;;;;;;5835250;24;20672;-84
2023/03/22 04:50:09;;;;;;;6.80;6.10;;;8.00;99.90;;;;;;5840923;24;20196;-80
2023/03/22 04:52:36;;;;;;;7.97;5.90;;;8.00;99.90;;;;;;5839058;24;20220;-80
2023/03/22 04:55:03;;;;;;;7.00;6.38;;;7.90;99.90;;;;;;5835232;24;20294;-80
2023/03/22 04:57:30;;;;;;;9.18;7.28;;;7.80;99.90;;;;;;5834946;24;20195;-80
2023/03/22 04:59:57;;;;;;;8.30;7.50;;;7.70;99.90;;;;;;5837667;24;20200;-80
2023/03/22 05:02:24;;;;;;;7.65;6.85;;;7.70;99.90;;;;;;5838889;24;20225;-79
2023/03/22 05:04:51;;;;;;;9.80;7.55;;;7.60;99.90;;;;;;5833420;24;20268;-79
2023/03/22 05:07:20;;;;;;;7.20;6.50;;;7.60;99.90;;;;;;5836953;24;20195;-79
2023/03/22 05:09:47;;;;;;;8.30;7.60;;;7.50;99.90;;;;;;5828022;24;20196;-80
2023/03/22 05:12:14;;;;;;;8.32;7.60;;;7.50;99.90;;;;;;5823649;24;20299;-80
2023/03/22 05:14:42;;;;;;;8.77;7.85;;;7.40;99.90;;;;;;5838530;24;20222;-82
2023/03/22 05:17:09;;;;;;;13.52;8.13;;;7.40;99.90;;;;;;5820006;24;20228;-79
2023/03/22 05:19:37;;;;;;;10.45;7.72;;;7.30;99.90;;;;;;5837603;24;20270;-80
2023/03/22 05:22:04;;;;;;;8.60;7.78;;;7.40;99.90;;;;;;5845500;24;20573;-78
2023/03/22 05:24:32;;;;;;;11.50;8.25;;;7.30;99.90;;;;;;5839695;24;20215;-79
2023/03/22 05:27:02;;;;;;;8.73;7.70;;;7.40;99.90;;;;;;5829247;24;20623;-80
2023/03/22 05:29:35;;;;;;;7.95;6.55;;;7.40;99.90;;;;;;5834130;24;20590;-81
2023/03/22 05:32:02;;;;;;;8.27;7.47;;;7.40;99.90;;;;;;5836124;24;20220;-81
2023/03/22 05:34:34;;;;;;;8.18;7.47;;;7.50;99.90;;;;;;5839648;24;20249;-77
2023/03/22 05:37:01;;;;;;;7.22;6.53;;;7.60;99.90;;;;;;5842452;24;20236;-76
2023/03/22 05:39:28;;;;;;;6.57;5.97;;;7.60;99.90;;;;;;5832222;24;20203;-74
2023/03/22 05:41:57;;;;;;;10.45;6.07;;;7.70;99.90;;;;;;5823362;24;20223;-74
2023/03/22 05:44:24;;;;;;;7.82;6.88;;;7.80;99.90;;;;;;5820348;24;20230;-81
2023/03/22 05:46:51;;;;;;;6.68;6.05;;;7.80;99.90;;;;;;5833406;24;20196;-81
2023/03/22 05:49:18;;;;;;;7.20;5.82;;;7.80;99.90;;;;;;5828023;24;20228;-82
2023/03/22 05:51:45;;;;;;;7.25;5.80;;;7.80;99.90;;;;;;5826660;24;20243;-81
2023/03/22 05:54:13;;;;;;;5.80;5.30;;;7.80;99.90;;;;;;5835691;24;20222;-81
2023/03/22 05:56:40;;;;;;;6.20;5.60;;;7.80;99.90;;;;;;5840862;24;20726;-82
2023/03/22 05:59:08;;;;;;;6.07;5.47;;;7.80;99.90;;;;;;5840180;24;20240;-82
2023/03/22 06:01:35;;;;;;;5.47;5.07;;;7.90;99.90;;;;;;5827839;24;20191;-82
2023/03/22 06:04:02;;;;;;;5.88;5.38;;;7.90;99.90;;;;;;5835958;24;20219;-81
2023/03/22 06:06:29;;;;;;;7.70;5.50;;;7.90;99.90;;;;;;5828044;24;20687;-82
2023/03/22 06:08:56;;;;;;;5.50;5.00;;;8.00;99.90;;;;;;5835730;24;20224;-81
2023/03/22 06:11:23;;;;;;;6.05;5.30;;;8.00;99.90;;;;;;5836298;24;20703;-82
2023/03/22 06:13:51;;;;;;;4.68;4.28;;;8.10;99.90;;;;;;5832443;24;20928;-82
2023/03/22 06:16:19;;;;;;;5.10;4.70;;;8.20;99.90;;;;;;5824543;24;20700;-82
2023/03/22 06:18:47;;;;;;;4.72;4.32;;;8.40;99.90;;;;;;5840612;24;20193;-81
2023/03/22 06:21:13;;;;;;;5.03;4.10;;;8.60;99.90;;;;;;5852238;24;20197;-82
2023/03/22 06:23:42;;;;;;;4.20;3.80;;;8.80;99.90;;;;;;5847684;24;20225;-82
2023/03/22 06:26:10;;;;;;;4.10;3.70;;;9.00;99.90;;;;;;5818359;24;20194;-82
2023/03/22 06:28:37;;;;;;;3.83;3.40;;;9.30;99.90;;;;;;5824657;24;20252;-82
2023/03/22 06:31:07;;;;;;;5.15;3.78;;;9.30;99.90;;;;;;5837276;24;20233;-82
2023/03/22 06:33:36;;;;;;;3.75;3.42;;;10.00;99.90;;;;;;5813219;24;20571;-81
2023/03/22 06:36:04;;;;;;;5.70;3.63;;;10.20;99.90;;;;;;5827870;24;20479;-82
2023/03/22 06:38:31;;;;;;;4.25;3.30;;;10.50;99.90;;;;;;5837079;24;20235;-83
2023/03/22 06:40:58;;;;;;;3.80;3.10;;;10.70;99.90;;;;;;5832168;24;20658;-82
2023/03/22 06:43:25;;;;;;;4.20;3.10;;;10.90;99.90;;;;;;5833494;24;20466;-82
2023/03/22 06:45:52;;;;;;;4.10;3.40;;;11.20;99.90;;;;;;5836200;24;20451;-82
2023/03/22 06:48:19;;;;;;;4.07;3.27;;;11.40;99.90;;;;;;5832966;24;20443;-81
2023/03/22 06:50:48;;;;;;;4.47;3.40;;;11.70;99.90;;;;;;5838748;24;20485;-82
2023/03/22 06:53:15;;;;;;;5.40;3.43;;;11.80;99.90;;;;;;5833833;24;20543;-81
2023/03/22 06:55:42;;;;;;;3.30;3.10;;;12.00;99.90;;;;;;5832922;24;20453;-82
2023/03/22 06:58:09;;;;;;;4.70;3.00;;;12.20;99.90;;;;;;5837942;24;20490;-82
2023/03/22 07:00:37;;;;;;;3.63;3.30;;;12.30;99.90;;;;;;5837560;24;20455;-81
2023/03/22 07:03:04;;;;;;;4.17;3.03;;;12.40;99.90;;;;;;5833191;24;20493;-81
2023/03/22 07:05:31;;;;;;;4.77;3.10;;;12.50;99.90;;;;;;5836730;24;20509;-82
2023/03/22 07:08:00;;;;;;;2.63;2.43;;;12.60;99.90;;;;;;5844247;24;20453;-82
2023/03/22 07:10:27;;;;;;;2.70;2.40;;;12.60;99.90;;;;;;5861017;24;20601;-81
2023/03/22 07:12:54;;;;;;;5.17;2.90;;;12.70;99.90;;;;;;5858930;24;20524;-82
2023/03/22 07:15:23;;;;;;;3.87;3.13;;;12.90;99.90;;;;;;5836988;24;20444;-82
2023/03/22 07:17:50;;;;;;;6.30;3.67;;;12.90;99.90;;;;;;5834410;24;20499;-80
2023/03/22 07:20:18;;;;;;;4.17;3.77;;;12.90;99.90;;;;;;5833037;24;20454;-81
2023/03/22 07:22:45;;;;;;;4.67;3.40;;;12.90;99.90;;;;;;5826778;24;20460;-82
2023/03/22 07:25:14;;;;;;;4.00;3.53;;;12.90;99.90;;;;;;5838611;24;20449;-81
2023/03/22 07:27:41;;;;;;;7.40;3.67;;;13.00;99.90;;;;;;5835475;24;21155;-81
2023/03/22 07:30:09;;;;;;;4.23;3.70;;;13.10;99.90;;;;;;5838739;24;20510;-81
2023/03/22 07:32:36;;;;;;;3.90;3.17;;;13.00;99.90;;;;;;5833979;24;20473;-81
2023/03/22 07:35:04;;;;;;;3.23;2.90;;;13.00;99.90;;;;;;5838955;24;20523;-81
2023/03/22 07:37:31;;;;;;;4.37;2.80;;;13.20;99.90;;;;;;5837282;24;20480;-82
2023/03/22 07:39:58;;;;;;;3.27;2.50;;;13.30;99.90;;;;;;5838206;24;20582;-81
2023/03/22 07:42:26;;;;;;;3.63;2.23;;;13.30;99.90;;;;;;5838743;24;20461;-81
2023/03/22 07:44:54;;;;;;;3.87;3.10;;;13.50;99.90;;;;;;5834131;24;20536;-81
2023/03/22 07:47:22;;;;;;;6.93;2.83;;;13.50;99.90;;;;;;5837236;24;20454;-81
2023/03/22 07:49:50;;;;;;;2.87;2.27;;;13.60;99.90;;;;;;5833286;24;20439;-81
2023/03/22 07:52:17;;;;;;;3.90;1.90;;;13.80;99.90;;;;;;5834016;24;20582;-80
2023/03/22 07:54:44;;;;;;;4.43;2.37;;;14.00;99.90;;;;;;5839701;24;20535;-81
2023/03/22 07:57:12;;;;;;;2.03;1.83;;;14.20;99.90;;;;;;5853758;24;20481;-81
2023/03/22 07:59:42;;;;;;;1.67;1.57;;;14.40;99.90;;;;;;5837891;24;21276;-81
2023/03/22 08:02:10;;;;;;;2.67;1.60;;;14.80;99.90;;;;;;5831247;24;20997;-80
2023/03/22 08:04:37;;;;;;;2.00;1.63;;;15.00;99.90;;;;;;5816171;24;20503;-80
2023/03/22 08:07:08;;;;;;;2.07;1.60;;;15.10;99.90;;;;;;5817642;24;20460;-81
2023/03/22 08:09:36;;;;;;;2.77;1.60;;;15.20;99.90;;;;;;5836380;24;21338;-81
2023/03/22 08:12:03;;;;;;;4.10;1.60;;;15.40;99.90;;;;;;5838645;24;20430;-81
2023/03/22 08:14:31;;;;;;;1.60;1.50;;;15.60;99.90;;;;;;5849189;24;20446;-81
2023/03/22 08:17:00;;;;;;;3.17;1.50;;;15.70;99.90;;;;;;5836892;24;20478;-80
2023/03/22 08:19:27;;;;;;;1.60;1.50;;;15.90;99.90;;;;;;5829458;24;21158;-80
2023/03/22 08:21:54;;;;;;;1.73;1.30;;;16.10;99.90;;;;;;5831005;24;20841;-80
2023/03/22 08:24:21;;;;;;;2.10;1.27;;;16.40;99.90;;;;;;5817681;24;20466;-82
2023/03/22 08:26:49;;;;;;;1.30;1.20;;;16.50;99.90;;;;;;5832819;24;20453;-81
2023/03/22 08:29:17;;;;;;;2.20;1.30;;;16.70;99.90;;;;;;5821593;24;20444;-82
2023/03/22 08:31:45;;;;;;;3.70;1.67;;;16.80;99.90;;;;;;5834703;24;20445;-82
2023/03/22 08:34:14;;;;;;;2.03;1.70;;;17.00;99.90;;;;;;5830661;24;20458;-82
2023/03/22 08:36:41;;;;;;;2.00;1.50;;;17.20;99.90;;;;;;5833889;24;20500;-82
2023/03/22 08:39:09;;;;;;;2.43;1.40;;;17.30;99.90;;;;;;5835056;24;20449;-81
2023/03/22 08:41:36;;;;;;;1.40;1.30;;;17.60;99.90;;;;;;5832873;24;20526;-81
2023/03/22 08:44:03;;;;;;;1.17;1.00;;;17.70;99.90;;;;;;5844950;24;20566;-81
2023/03/22 08:46:30;;;;;;;1.70;0.93;;;17.70;99.90;;;;;;5838194;24;20491;-81
2023/03/22 08:48:59;;;;;;;0.97;0.90;;;17.70;99.90;;;;;;5837095;24;20440;-81
2023/03/22 08:51:27;;;;;;;2.80;1.20;;;17.70;99.90;;;;;;5825323;24;20446;-81
2023/03/22 08:53:57;;;;;;;1.70;0.93;;;17.40;99.90;;;;;;5838295;24;20493;-81
2023/03/22 08:56:26;;;;;;;2.10;1.00;;;17.70;99.90;;;;;;5843408;24;20949;-81
2023/03/22 08:58:53;;;;;;;1.27;0.87;;;17.70;99.90;;;;;;5840733;24;20538;-82
2023/03/22 09:01:20;;;;;;;1.00;0.90;;;17.60;99.90;;;;;;5833738;24;20466;-82
2023/03/22 09:03:47;;;;;;;2.60;0.83;;;17.70;99.90;;;;;;5841077;24;21969;-81
2023/03/22 09:06:15;;;;;;;1.37;0.90;;;17.70;99.90;;;;;;5831557;24;20469;-82
2023/03/22 09:08:43;;;;;;;1.10;0.93;;;17.80;99.90;;;;;;5850044;24;20456;-82
2023/03/22 09:11:11;;;;;;;1.10;1.00;;;17.80;99.90;;;;;;5852497;24;20452;-81
2023/03/22 09:13:39;;;;;;;1.47;1.10;;;18.00;99.90;;;;;;5849543;24;20843;-81
2023/03/22 09:16:07;;;;;;;1.00;0.90;;;18.40;99.90;;;;;;5837017;24;20506;-81
2023/03/22 09:18:34;;;;;;;1.30;1.07;;;18.70;99.90;;;;;;5831316;24;20573;-85
2023/03/22 09:21:02;;;;;;;2.03;1.23;;;19.00;99.90;;;;;;5830551;24;20522;-83
2023/03/22 09:23:31;;;;;;;2.37;1.43;;;19.20;99.90;;;;;;5825038;24;20454;-81
2023/03/22 09:26:02;;;;;;;1.87;1.07;;;19.60;99.20;;;;;;5838076;24;20439;-82
2023/03/22 09:28:29;;;;;;;2.40;1.40;;;19.90;98.70;;;;;;5830783;24;20450;-81
2023/03/22 09:31:00;;;;;;;1.40;1.20;;;19.80;98.20;;;;;;5835635;24;22519;-83
2023/03/22 09:33:27;;;;;;;1.53;1.03;;;19.90;98.20;;;;;;5837243;24;20458;-81
2023/03/22 09:35:55;;;;;;;1.17;1.00;;;19.80;97.80;;;;;;5835802;24;20534;-81
2023/03/22 09:38:22;;;;;;;1.50;1.40;;;19.60;97.70;;;;;;5838356;24;20962;-83
2023/03/22 09:40:59;;;;;;;3.20;1.30;;;19.40;97.60;;;;;;5830607;24;20454;-82
2023/03/22 09:44:02;;;;;;;1.43;1.03;;;18.80;97.90;;;;;;5822454;24;20542;-80
2023/03/22 09:46:33;;;;;;;1.67;1.10;;;18.60;98.70;;;;;;5833682;24;20481;-81
2023/03/22 09:49:04;;;;;;;3.17;1.40;;;18.60;98.80;;;;;;5834332;24;20455;-82
2023/03/22 09:51:39;;;;;;;3.10;1.33;;;18.40;98.80;;;;;;5835338;24;20446;-81
2023/03/22 09:54:12;;;;;;;1.17;1.07;;;18.60;98.70;;;;;;5825981;24;21016;-81
2023/03/22 09:56:40;;;;;;;1.47;1.37;;;19.00;98.40;;;;;;5835126;24;20955;-80
2023/03/22 09:59:17;;;;;;;1.87;1.20;;;19.10;98.00;;;;;;5828024;24;20539;-83
2023/03/22 10:01:51;;;;;;;2.53;1.37;;;19.30;97.60;;;;;;5832164;24;20988;-82
2023/03/22 10:04:43;;;;;;;1.40;1.20;;;19.30;97.50;;;;;;5835488;24;20445;-81
2023/03/22 10:07:21;;;;;;;1.60;1.00;;;19.30;97.40;;;;;;5833418;24;20997;-82
2023/03/22 10:10:01;;;;;;;1.57;1.10;;;19.80;97.70;;;;;;5829144;24;21188;-84
2023/03/22 10:12:30;;;;;;;3.00;1.37;;;20.40;96.10;;;;;;5829049;24;20490;-83
2023/03/22 10:15:05;;;;;;;1.23;1.10;;;20.40;95.60;;;;;;5835322;24;20438;-82
2023/03/22 10:17:35;;;;;;;1.90;1.20;;;20.00;96.00;;;;;;5832794;24;20493;-82
2023/03/22 10:20:07;;;;;;;1.40;1.30;;;19.50;96.30;;;;;;5829495;24;20450;-82
2023/03/22 10:22:40;;;;;;;2.10;1.13;;;19.10;96.60;;;;;;5831544;24;20467;-82
2023/03/22 10:25:09;;;;;;;1.00;0.90;;;19.30;97.10;;;;;;5815736;24;20449;-82
2023/03/22 10:27:37;;;;;;;1.97;1.00;;;19.40;96.80;;;;;;5821771;24;20935;-82
2023/03/22 10:30:10;;;;;;;2.03;1.17;;;20.10;96.70;;;;;;5821499;24;20943;-84
2023/03/22 10:32:43;;;;;;;1.87;1.20;;;20.80;96.00;;;;;;5821266;24;21045;-82
2023/03/22 10:35:14;;;;;;;1.10;1.00;;;21.30;95.10;;;;;;5825087;24;20476;-82
2023/03/22 10:37:43;;;;;;;3.77;1.30;;;22.00;94.00;;;;;;5824488;24;20475;-81
2023/03/22 10:40:18;;;;;;;1.30;1.20;;;21.90;93.60;;;;;;5823375;24;20455;-82
2023/03/22 10:42:52;;;;;;;1.47;1.37;;;21.90;93.00;;;;;;5821557;24;20469;-82
2023/03/22 10:45:23;;;;;;;2.07;1.30;;;21.80;93.10;;;;;;5823015;24;20541;-82
2023/03/22 10:47:56;;;;;;;1.47;1.20;;;21.80;92.70;;;;;;5822836;24;20457;-82
2023/03/22 10:50:29;;;;;;;1.50;1.40;;;21.80;92.70;;;;;;5825052;24;20441;-81
2023/03/22 10:53:01;;;;;;;2.80;1.40;;;21.70;92.70;;;;;;5813754;24;20541;-76
2023/03/22 10:55:28;;;;;;;1.53;1.30;;;21.80;92.40;;;;;;5828301;24;20502;-85
2023/03/22 10:58:08;;;;;;;2.00;1.30;;;21.90;92.70;;;;;;5840884;24;21307;-85
2023/03/22 11:00:37;;;;;;;2.63;1.27;;;22.50;92.40;;;;;;5835051;24;20449;-85
2023/03/22 11:03:06;;;;;;;1.60;1.27;;;23.30;90.80;;;;;;5839448;24;20469;-84
2023/03/22 11:05:33;;;;;;;1.70;1.40;;;23.40;90.30;;;;;;5847341;24;20531;-85
2023/03/22 11:08:03;;;;;;;1.30;1.10;;;23.30;90.30;;;;;;5860062;24;20448;-86
2023/03/22 11:10:32;;;;;;;1.23;1.13;;;23.40;90.50;;;;;;5838864;24;21113;-85
2023/03/22 11:13:20;;;;;;;1.30;1.10;;;24.00;89.10;;;;;;5832182;24;20457;-85
2023/03/22 11:15:55;;;;;;;1.57;1.20;;;24.20;88.20;;;;;;5846344;24;20473;-83
2023/03/22 11:18:24;;;;;;;1.30;1.20;;;24.20;86.70;;;;;;5866838;24;20502;-84
2023/03/22 11:20:57;;;;;;;2.07;1.60;;;24.30;86.70;;;;;;5846459;24;20439;-83
2023/03/22 11:23:27;;;;;;;2.90;1.40;;;24.30;85.70;;;;;;5849843;24;20486;-83
2023/03/22 11:25:59;;;;;;;2.20;1.30;;;24.40;87.00;;;;;;5841131;24;20438;-82
2023/03/22 11:28:32;;;;;;;3.07;1.60;;;24.50;85.50;;;;;;5815260;24;20424;-84
2023/03/22 11:31:07;;;;;;;1.67;1.17;;;24.70;85.30;;;;;;5828735;24;20446;-85
2023/03/22 11:33:36;;;;;;;1.23;1.00;;;24.80;83.70;;;;;;5840249;24;21001;-82
2023/03/22 11:36:05;;;;;;;1.37;1.27;;;25.00;83.70;;;;;;5839176;24;20450;-84
2023/03/22 11:38:37;;;;;;;2.00;1.40;;;25.20;82.30;;;;;;5841442;24;20466;-84
2023/03/22 11:41:07;;;;;;;1.77;1.43;;;25.60;82.20;;;;;;5838859;24;20442;-84
2023/03/22 11:43:37;;;;;;;1.20;1.10;;;25.80;80.90;;;;;;5840981;24;20507;-85
2023/03/22 11:46:08;;;;;;;1.50;1.40;;;26.10;79.00;;;;;;5840455;24;20807;-82
2023/03/22 11:48:36;;;;;;;1.90;1.40;;;26.10;76.60;;;;;;5834941;24;20924;-84
2023/03/22 11:51:07;;;;;;;1.60;1.50;;;25.60;77.40;;;;;;5841734;24;20454;-82
2023/03/22 11:53:38;;;;;;;1.73;1.47;;;25.40;78.60;;;;;;5840863;24;20478;-84
2023/03/22 11:56:06;;;;;;;2.63;1.40;;;25.40;78.10;;;;;;5830170;24;20456;-75
2023/03/22 11:58:58;;;;;;;1.73;1.20;;;25.50;77.90;;;;;;5825391;24;20487;-81
2023/03/22 12:01:35;;;;;;;1.20;1.03;;;25.40;77.30;;;;;;5830655;24;20447;-81
2023/03/22 12:04:07;;;;;;;1.47;1.17;;;25.60;75.60;;;;;;5831002;24;20502;-79
2023/03/22 12:06:39;;;;;;;2.47;1.17;;;25.80;75.80;;;;;;5824056;24;20841;-79
2023/03/22 12:09:10;;;;;;;1.80;1.70;;;26.20;75.30;;;;;;5839299;24;20455;-80
2023/03/22 12:11:40;;;;;;;1.60;1.20;;;26.70;74.20;;;;;;5838664;24;21017;-79
2023/03/22 12:14:15;;;;;;;1.40;1.30;;;26.90;71.60;;;;;;5838831;24;20438;-80
2023/03/22 12:16:49;;;;;;;1.77;1.20;;;26.80;71.30;;;;;;5842535;24;20457;-80
2023/03/22 12:19:25;;;;;;;1.20;1.10;;;26.70;71.50;;;;;;5836915;24;20505;-79
2023/03/22 12:21:53;;;;;;;2.00;1.23;;;26.90;70.70;;;;;;5833521;24;21054;-78
2023/03/22 12:24:27;;;;;;;1.10;1.00;;;26.70;69.00;;;;;;5834547;24;20439;-79
2023/03/22 12:26:57;;;;;;;1.20;0.80;;;26.90;69.60;;;;;;5840017;24;20450;-80
2023/03/22 12:29:26;;;;;;;1.30;1.20;;;27.00;68.10;;;;;;5839634;24;20446;-80
2023/03/22 12:32:02;;;;;;;1.57;1.00;;;27.00;67.10;;;;;;5840193;24;20808;-80
2023/03/22 12:34:37;;;;;;;1.57;0.80;;;26.70;68.20;;;;;;5839658;24;20533;-80
2023/03/22 12:37:08;;;;;;;1.93;1.00;;;26.40;67.70;;;;;;5853361;24;20926;-80
2023/03/22 12:39:40;;;;;;;1.10;1.00;;;26.00;68.00;;;;;;5845218;24;21021;-80
2023/03/22 12:42:17;;;;;;;1.57;0.90;;;25.70;69.60;;;;;;5839499;24;20471;-79
2023/03/22 12:44:47;;;;;;;2.03;1.00;;;25.40;69.50;;;;;;5832837;24;20449;-79
2023/03/22 12:47:22;;;;;;;2.17;1.90;;;25.20;68.80;;;;;;5829474;24;20499;-79
2023/03/22 12:49:56;;;;;;;2.50;1.47;;;25.10;67.80;;;;;;5832235;24;20446;-79
2023/03/22 12:52:30;;;;;;;1.53;1.10;;;24.90;67.70;;;;;;5832631;24;20497;-79
2023/03/22 12:55:00;;;;;;;1.73;1.10;;;24.50;66.80;;;;;;5831622;24;20453;-79
2023/03/22 12:57:27;;;;;;;1.30;0.90;;;24.00;67.60;;;;;;5834643;24;20449;-79
2023/03/22 12:59:59;;;;;;;1.20;0.87;;;23.80;68.10;;;;;;5834469;24;20478;-79
2023/03/22 13:02:31;;;;;;;1.13;0.93;;;23.90;67.20;;;;;;5833631;24;20462;-79
2023/03/22 13:04:59;;;;;;;2.30;1.00;;;24.00;69.10;;;;;;5837628;24;20514;-79
2023/03/22 13:07:37;;;;;;;0.80;0.80;;;24.50;69.40;;;;;;5826659;24;20538;-79